Time;durP1;ratioP1;P1;durP2;ratioP2;P2;SDS_P1;SDS_P2;PMS_P1;PMS_P2;Temp;Humidity;BMP_temperature;BMP_pressure;BME280_temperature;BME280_humidity;BME280_pressure;Samples;Min_cycle;Max_cycle;Signal;HPM_P1;HPM_P2
2023/06/06 00:00:13;;;;;;;5.10;2.27;;;15.90;99.90;;;;;;4954578;29;20409;-70
2023/06/06 00:02:43;;;;;;;2.90;2.60;;;15.80;99.90;;;;;;4954249;28;20441;-69
2023/06/06 00:05:11;;;;;;;4.33;3.07;;;15.80;99.90;;;;;;4954439;29;20431;-69
2023/06/06 00:07:37;;;;;;;3.30;2.40;;;15.80;99.90;;;;;;4937323;29;20496;-70
2023/06/06 00:10:03;;;;;;;2.90;2.40;;;15.80;99.90;;;;;;4954584;29;20402;-70
2023/06/06 00:12:32;;;;;;;2.80;2.60;;;15.70;99.90;;;;;;4956489;28;21108;-70
2023/06/06 00:14:59;;;;;;;2.50;2.30;;;15.70;99.90;;;;;;4973644;28;20864;-69
2023/06/06 00:17:25;;;;;;;9.33;2.80;;;15.60;99.90;;;;;;4956143;28;20584;-69
2023/06/06 00:19:52;;;;;;;3.00;2.70;;;15.60;99.90;;;;;;4973623;28;20496;-69
2023/06/06 00:22:22;;;;;;;4.50;3.20;;;15.60;99.90;;;;;;4973128;28;20436;-69
2023/06/06 00:24:54;;;;;;;6.20;3.17;;;15.60;99.90;;;;;;4974026;28;20484;-70
2023/06/06 00:27:20;;;;;;;3.40;2.60;;;15.50;99.90;;;;;;4973548;28;20424;-70
2023/06/06 00:29:46;;;;;;;4.50;3.40;;;15.50;99.90;;;;;;4956253;28;20452;-69
2023/06/06 00:32:12;;;;;;;3.93;2.60;;;15.50;99.90;;;;;;4973124;28;20484;-69
2023/06/06 00:34:37;;;;;;;7.27;2.83;;;15.50;99.90;;;;;;4973376;28;20409;-69
2023/06/06 00:37:03;;;;;;;3.00;2.33;;;15.40;99.90;;;;;;4973216;28;20709;-71
2023/06/06 00:39:28;;;;;;;4.00;2.60;;;15.50;99.90;;;;;;4973129;28;20646;-69
2023/06/06 00:41:54;;;;;;;3.67;2.37;;;15.40;99.90;;;;;;4972866;28;20189;-70
2023/06/06 00:44:21;;;;;;;4.80;2.70;;;15.40;99.90;;;;;;4973340;28;20195;-71
2023/06/06 00:46:47;;;;;;;5.33;3.00;;;15.30;99.90;;;;;;4956244;28;20174;-71
2023/06/06 00:49:15;;;;;;;5.03;3.50;;;15.30;99.90;;;;;;4973685;28;20444;-71
2023/06/06 00:51:42;;;;;;;4.47;2.93;;;15.30;99.90;;;;;;4955921;28;20424;-70
2023/06/06 00:54:12;;;;;;;3.37;2.87;;;15.20;99.90;;;;;;4973528;28;20980;-70
2023/06/06 00:56:38;;;;;;;3.87;3.53;;;15.20;99.90;;;;;;4972539;28;20813;-71
2023/06/06 00:59:05;;;;;;;6.03;4.60;;;15.10;99.90;;;;;;4972784;28;20413;-71
2023/06/06 01:01:33;;;;;;;4.67;3.50;;;15.10;99.90;;;;;;4973183;28;20497;-71
2023/06/06 01:04:00;;;;;;;4.03;3.13;;;15.20;99.90;;;;;;4973176;28;20413;-71
2023/06/06 01:06:26;;;;;;;3.30;3.00;;;15.10;99.90;;;;;;4972645;28;20859;-69
2023/06/06 01:08:52;;;;;;;5.27;3.53;;;15.10;99.90;;;;;;4972556;28;20417;-70
2023/06/06 01:11:29;;;;;;;5.10;4.60;;;15.00;99.90;;;;;;4972186;28;20697;-70
2023/06/06 01:14:18;;;;;;;5.27;3.47;;;15.10;99.90;;;;;;4959690;28;20251;-69
2023/06/06 01:16:49;;;;;;;4.50;3.40;;;15.00;99.90;;;;;;4953507;29;20823;-70
2023/06/06 01:19:27;;;;;;;4.90;4.07;;;15.00;99.90;;;;;;4953829;29;20402;-71
2023/06/06 01:21:54;;;;;;;4.70;3.63;;;14.90;99.90;;;;;;4936228;29;20926;-70
2023/06/06 01:24:20;;;;;;;5.40;3.83;;;14.90;99.90;;;;;;4953637;29;20417;-71
2023/06/06 01:26:46;;;;;;;7.83;4.53;;;14.90;99.90;;;;;;4953622;29;20895;-70
2023/06/06 01:29:12;;;;;;;4.87;3.90;;;14.90;99.90;;;;;;4953903;29;20438;-69
2023/06/06 01:31:43;;;;;;;3.73;3.33;;;14.80;99.90;;;;;;4953325;28;20213;-72
2023/06/06 01:34:30;;;;;;;5.43;4.13;;;14.80;99.90;;;;;;4936628;29;20595;-70
2023/06/06 01:37:23;;;;;;;3.90;3.37;;;14.80;99.90;;;;;;4953593;29;20460;-71
2023/06/06 01:39:50;;;;;;;5.57;4.10;;;14.80;99.90;;;;;;4953921;29;20883;-70
2023/06/06 01:42:17;;;;;;;4.70;3.73;;;14.70;99.90;;;;;;4953405;28;20436;-70
2023/06/06 01:44:43;;;;;;;6.30;4.70;;;14.70;99.90;;;;;;4953522;29;20979;-69
2023/06/06 01:47:10;;;;;;;3.97;3.50;;;14.70;99.90;;;;;;4953324;29;20398;-69
2023/06/06 01:49:36;;;;;;;4.17;3.70;;;14.70;99.90;;;;;;4953436;29;20421;-69
2023/06/06 01:52:02;;;;;;;4.00;3.60;;;14.70;99.90;;;;;;4953048;28;20855;-71
2023/06/06 01:54:28;;;;;;;5.20;4.13;;;14.60;99.90;;;;;;4953479;29;20401;-69
2023/06/06 01:56:54;;;;;;;6.20;4.70;;;14.60;99.90;;;;;;4953387;29;20544;-69
2023/06/06 01:59:20;;;;;;;5.07;4.40;;;14.60;99.90;;;;;;4953571;29;20406;-71
2023/06/06 02:01:46;;;;;;;5.07;3.83;;;14.60;99.90;;;;;;4952901;28;20429;-71
2023/06/06 02:04:11;;;;;;;7.00;3.83;;;14.60;99.90;;;;;;4953501;29;20899;-71
2023/06/06 02:06:37;;;;;;;9.37;4.40;;;14.60;99.90;;;;;;4953361;29;20211;-69
2023/06/06 02:09:02;;;;;;;5.23;4.40;;;14.50;99.90;;;;;;4955490;28;20178;-69
2023/06/06 02:11:29;;;;;;;5.00;3.90;;;14.50;99.90;;;;;;4956307;28;20655;-69
2023/06/06 02:13:57;;;;;;;5.57;4.90;;;14.50;99.90;;;;;;4956093;29;20197;-70
2023/06/06 02:16:22;;;;;;;6.40;4.47;;;14.50;99.90;;;;;;4956537;29;20895;-69
2023/06/06 02:18:48;;;;;;;4.80;3.83;;;14.50;99.90;;;;;;4956625;29;20473;-70
2023/06/06 02:21:13;;;;;;;10.67;4.80;;;14.40;99.90;;;;;;4956466;28;20177;-69
2023/06/06 02:23:39;;;;;;;4.10;3.70;;;14.40;99.90;;;;;;4956475;29;20178;-69
2023/06/06 02:26:05;;;;;;;5.30;4.23;;;14.40;99.90;;;;;;4956464;29;20245;-70
2023/06/06 02:28:30;;;;;;;3.77;3.40;;;14.40;99.90;;;;;;4956383;29;20406;-69
2023/06/06 02:30:56;;;;;;;5.63;4.03;;;14.30;99.90;;;;;;4955997;29;20163;-70
2023/06/06 02:33:22;;;;;;;7.07;4.70;;;14.30;99.90;;;;;;4938740;29;20198;-71
2023/06/06 02:35:49;;;;;;;4.80;3.83;;;14.30;99.90;;;;;;4956256;29;20418;-70
2023/06/06 02:38:14;;;;;;;4.00;3.60;;;14.30;99.90;;;;;;4956148;29;20288;-69
2023/06/06 02:40:40;;;;;;;6.10;4.90;;;14.20;99.90;;;;;;4955731;29;20439;-69
2023/06/06 02:43:06;;;;;;;7.60;4.50;;;14.20;99.90;;;;;;4956112;28;20202;-70
2023/06/06 02:45:31;;;;;;;6.57;5.47;;;14.20;99.90;;;;;;4956017;29;20222;-69
2023/06/06 02:47:57;;;;;;;7.53;5.93;;;14.20;99.90;;;;;;4956057;29;20257;-69
2023/06/06 02:50:22;;;;;;;6.77;4.97;;;14.10;99.90;;;;;;4955722;29;20200;-69
2023/06/06 02:52:48;;;;;;;5.93;4.77;;;14.10;99.90;;;;;;4938627;29;20206;-69
2023/06/06 02:55:14;;;;;;;5.90;4.10;;;14.10;99.90;;;;;;4938623;29;20184;-71
2023/06/06 02:57:40;;;;;;;9.10;5.23;;;14.00;99.90;;;;;;4956360;29;20232;-71
2023/06/06 03:00:08;;;;;;;5.30;4.40;;;14.00;99.90;;;;;;4939143;29;20170;-71
2023/06/06 03:02:34;;;;;;;10.10;6.03;;;14.00;99.90;;;;;;4956199;28;20655;-71
2023/06/06 03:05:00;;;;;;;7.17;5.40;;;14.00;99.90;;;;;;4955780;29;20413;-72
2023/06/06 03:07:26;;;;;;;9.60;4.50;;;13.90;99.90;;;;;;4955737;29;20412;-69
2023/06/06 03:09:52;;;;;;;8.43;5.20;;;13.90;99.90;;;;;;4956518;29;20170;-72
2023/06/06 03:12:17;;;;;;;4.73;3.93;;;13.90;99.90;;;;;;4956500;28;20437;-71
2023/06/06 03:14:43;;;;;;;6.07;5.00;;;13.90;99.90;;;;;;4972108;28;20304;-71
2023/06/06 03:17:08;;;;;;;6.77;4.93;;;13.80;99.90;;;;;;4958068;28;20209;-71
2023/06/06 03:19:35;;;;;;;6.80;5.80;;;13.80;99.90;;;;;;4956801;28;20653;-69
2023/06/06 03:22:00;;;;;;;9.03;4.70;;;13.70;99.90;;;;;;4974816;28;20185;-72
2023/06/06 03:24:28;;;;;;;6.70;6.10;;;13.70;99.90;;;;;;4975416;28;20428;-71
2023/06/06 03:26:54;;;;;;;6.90;5.73;;;13.70;99.90;;;;;;4974559;28;20539;-69
2023/06/06 03:29:20;;;;;;;8.17;5.10;;;13.70;99.90;;;;;;4974706;28;20417;-71
2023/06/06 03:31:48;;;;;;;7.00;5.00;;;13.70;99.90;;;;;;4975055;28;20194;-72
2023/06/06 03:34:14;;;;;;;6.90;5.00;;;13.60;99.90;;;;;;4975047;28;20165;-69
2023/06/06 03:36:40;;;;;;;7.50;4.90;;;13.70;99.90;;;;;;4974267;28;21008;-69
2023/06/06 03:39:06;;;;;;;6.07;5.47;;;13.70;99.90;;;;;;4974850;28;20471;-70
2023/06/06 03:41:31;;;;;;;7.33;4.60;;;13.70;99.90;;;;;;4974001;28;20675;-69
2023/06/06 03:44:00;;;;;;;6.90;4.90;;;13.70;99.90;;;;;;4964363;28;20508;-70
2023/06/06 03:46:25;;;;;;;6.03;5.33;;;13.70;99.90;;;;;;4954994;29;20213;-69
2023/06/06 03:48:51;;;;;;;8.03;5.30;;;13.70;99.90;;;;;;4954914;29;20410;-69
2023/06/06 03:51:17;;;;;;;9.67;6.60;;;13.70;99.90;;;;;;4954518;28;20178;-69
2023/06/06 03:53:42;;;;;;;6.00;4.90;;;13.70;99.90;;;;;;4954832;29;20181;-69
2023/06/06 03:56:08;;;;;;;8.07;4.43;;;13.80;99.90;;;;;;4954841;29;20584;-71
2023/06/06 03:58:35;;;;;;;8.33;5.17;;;13.80;99.90;;;;;;4955295;29;20259;-72
2023/06/06 04:01:01;;;;;;;9.40;4.70;;;13.80;99.90;;;;;;4955022;28;20167;-72
2023/06/06 04:03:27;;;;;;;8.00;5.30;;;13.90;99.90;;;;;;4937938;29;20418;-70
2023/06/06 04:05:53;;;;;;;7.63;5.87;;;13.90;99.90;;;;;;4954610;29;20561;-69
2023/06/06 04:08:19;;;;;;;13.13;6.63;;;13.90;99.90;;;;;;4954501;28;20194;-69
2023/06/06 04:10:44;;;;;;;7.33;4.73;;;14.00;99.90;;;;;;4954160;29;20898;-69
2023/06/06 04:13:10;;;;;;;6.20;5.27;;;14.00;99.90;;;;;;4954098;28;20212;-71
2023/06/06 04:15:36;;;;;;;6.27;4.90;;;14.00;99.90;;;;;;4935828;29;20190;-71
2023/06/06 04:18:02;;;;;;;8.17;5.57;;;14.10;99.90;;;;;;4935408;29;20214;-71
2023/06/06 04:20:31;;;;;;;10.57;5.07;;;14.10;99.90;;;;;;4934813;29;20209;-71
2023/06/06 04:22:57;;;;;;;7.90;4.80;;;14.10;99.90;;;;;;4935146;29;20513;-71
2023/06/06 04:25:22;;;;;;;6.90;4.83;;;14.20;99.90;;;;;;4935090;29;20494;-71
2023/06/06 04:27:48;;;;;;;9.60;5.67;;;14.30;99.90;;;;;;4935234;29;20174;-69
2023/06/06 04:30:13;;;;;;;6.30;4.70;;;14.30;99.90;;;;;;4934932;29;20226;-69
2023/06/06 04:32:39;;;;;;;8.83;5.40;;;14.40;99.90;;;;;;4934658;29;20209;-70
2023/06/06 04:35:06;;;;;;;7.40;5.10;;;14.40;99.90;;;;;;4934948;29;20186;-71
2023/06/06 04:37:33;;;;;;;5.63;4.40;;;14.50;99.90;;;;;;4939416;29;20257;-69
2023/06/06 04:40:00;;;;;;;6.13;5.07;;;14.60;99.90;;;;;;4954035;29;20492;-69
2023/06/06 04:42:32;;;;;;;8.50;6.00;;;14.60;99.90;;;;;;4933130;29;20817;-69
2023/06/06 04:44:59;;;;;;;5.83;5.00;;;14.70;99.90;;;;;;4934946;29;20406;-69
2023/06/06 04:47:28;;;;;;;7.87;5.00;;;14.80;99.90;;;;;;4934811;29;20410;-69
2023/06/06 04:49:54;;;;;;;6.97;4.93;;;14.80;99.90;;;;;;4934923;29;20841;-70
2023/06/06 04:52:20;;;;;;;7.60;4.93;;;14.90;99.90;;;;;;4934388;29;20493;-71
2023/06/06 04:54:46;;;;;;;7.03;5.70;;;15.00;99.90;;;;;;4934889;29;20469;-71
2023/06/06 04:57:15;;;;;;;9.40;6.07;;;15.10;99.90;;;;;;4934803;29;20466;-71
2023/06/06 04:59:41;;;;;;;10.17;5.03;;;15.10;99.90;;;;;;4934925;29;20795;-71
2023/06/06 05:02:07;;;;;;;8.60;5.77;;;15.20;99.90;;;;;;4933102;29;20531;-71
2023/06/06 05:04:33;;;;;;;9.00;5.83;;;15.30;99.90;;;;;;4934935;29;20493;-71
2023/06/06 05:06:59;;;;;;;8.67;6.00;;;15.40;99.90;;;;;;4943042;29;20425;-71
2023/06/06 05:09:26;;;;;;;8.07;6.50;;;15.50;99.90;;;;;;4953913;29;20178;-71
2023/06/06 05:11:54;;;;;;;8.00;5.67;;;15.50;99.90;;;;;;4953687;28;20517;-71
2023/06/06 05:14:23;;;;;;;7.03;5.07;;;15.60;99.90;;;;;;4954912;29;20444;-71
2023/06/06 05:16:53;;;;;;;8.77;5.83;;;15.80;99.90;;;;;;4954598;29;20548;-72
2023/06/06 05:19:19;;;;;;;6.03;4.67;;;15.80;99.90;;;;;;4954801;29;21060;-71
2023/06/06 05:21:44;;;;;;;12.90;6.03;;;15.90;99.90;;;;;;4954413;28;20443;-71
2023/06/06 05:24:10;;;;;;;6.60;4.50;;;16.00;99.90;;;;;;4954702;28;20437;-71
2023/06/06 05:26:36;;;;;;;8.30;5.53;;;16.10;99.90;;;;;;4954652;29;20555;-72
2023/06/06 05:29:02;;;;;;;7.10;5.20;;;16.30;99.90;;;;;;4937603;29;20229;-71
2023/06/06 05:31:27;;;;;;;7.37;5.87;;;16.40;99.90;;;;;;4954670;28;20240;-72
2023/06/06 05:33:53;;;;;;;5.37;4.90;;;16.50;99.90;;;;;;4954659;29;20175;-72
2023/06/06 05:36:19;;;;;;;6.30;4.93;;;16.60;99.90;;;;;;4954798;29;20194;-72
2023/06/06 05:38:46;;;;;;;6.03;5.03;;;16.70;99.90;;;;;;4954546;29;20465;-72
2023/06/06 05:41:12;;;;;;;6.97;5.90;;;16.80;99.90;;;;;;4954324;28;20766;-72
2023/06/06 05:43:37;;;;;;;5.07;4.40;;;16.90;99.90;;;;;;4956614;28;20770;-72
2023/06/06 05:46:03;;;;;;;8.17;5.10;;;17.00;99.90;;;;;;4958192;29;20410;-72
2023/06/06 05:48:29;;;;;;;13.27;5.70;;;17.20;99.90;;;;;;4941160;29;20201;-72
2023/06/06 05:50:54;;;;;;;10.77;4.97;;;17.40;99.90;;;;;;4957522;29;20166;-72
2023/06/06 05:53:21;;;;;;;10.27;5.47;;;17.70;99.90;;;;;;4957772;28;20205;-72
2023/06/06 05:55:47;;;;;;;6.13;5.43;;;18.00;99.90;;;;;;4940353;29;20201;-72
2023/06/06 05:58:13;;;;;;;6.07;5.47;;;18.30;99.90;;;;;;4957451;29;21057;-72
2023/06/06 06:00:38;;;;;;;8.93;5.30;;;18.60;99.90;;;;;;4957447;29;20166;-71
2023/06/06 06:03:07;;;;;;;7.40;5.53;;;19.10;99.90;;;;;;4957237;28;20194;-71
2023/06/06 06:05:32;;;;;;;10.00;5.73;;;19.90;99.90;;;;;;4957055;29;20159;-71
2023/06/06 06:08:00;;;;;;;6.10;4.37;;;20.80;99.90;;;;;;4957181;29;20766;-72
2023/06/06 06:10:31;;;;;;;5.40;4.77;;;21.90;99.90;;;;;;4956761;29;20194;-71
2023/06/06 06:12:57;;;;;;;4.87;4.37;;;23.00;99.90;;;;;;4957093;28;20425;-72
2023/06/06 06:15:23;;;;;;;6.10;3.20;;;24.10;99.90;;;;;;4956958;29;20521;-72
2023/06/06 06:17:49;;;;;;;9.20;6.83;;;25.20;99.90;;;;;;4956760;29;20553;-70
2023/06/06 06:20:19;;;;;;;7.80;4.90;;;26.20;99.90;;;;;;4956929;29;20162;-70
2023/06/06 06:22:46;;;;;;;4.73;4.10;;;27.10;99.90;;;;;;4957253;28;20281;-71
2023/06/06 06:25:16;;;;;;;3.70;3.40;;;27.90;95.20;;;;;;4976257;28;20480;-71
2023/06/06 06:27:43;;;;;;;3.80;3.40;;;28.70;90.10;;;;;;4976050;28;20404;-70
2023/06/06 06:30:10;;;;;;;4.53;3.70;;;29.50;80.60;;;;;;4975948;28;20452;-71
2023/06/06 06:32:38;;;;;;;5.80;3.83;;;30.20;71.50;;;;;;4975275;28;20455;-70
2023/06/06 06:35:04;;;;;;;5.17;4.20;;;30.90;65.00;;;;;;4975542;28;20492;-69
2023/06/06 06:37:31;;;;;;;3.93;3.53;;;31.60;59.20;;;;;;4958075;28;20467;-70
2023/06/06 06:39:58;;;;;;;3.60;3.30;;;32.10;56.40;;;;;;4975366;28;20397;-69
2023/06/06 06:42:24;;;;;;;6.40;4.97;;;32.70;54.00;;;;;;4975169;28;20472;-69
2023/06/06 06:44:50;;;;;;;4.80;4.13;;;33.20;51.60;;;;;;4975313;28;20398;-69
2023/06/06 06:47:15;;;;;;;6.43;3.43;;;33.60;48.60;;;;;;4958038;28;20423;-70
2023/06/06 06:49:41;;;;;;;4.80;4.10;;;34.00;47.30;;;;;;4975254;28;20498;-70
2023/06/06 06:52:08;;;;;;;4.43;4.10;;;34.50;46.00;;;;;;4974993;28;20262;-70
2023/06/06 06:54:44;;;;;;;4.30;3.90;;;34.90;44.40;;;;;;4973918;28;20169;-70
2023/06/06 06:57:09;;;;;;;4.30;3.70;;;35.30;43.30;;;;;;4975180;28;20531;-70
2023/06/06 06:59:35;;;;;;;3.83;3.40;;;35.70;41.80;;;;;;4974872;28;20441;-70
2023/06/06 07:02:02;;;;;;;4.10;3.60;;;36.10;41.00;;;;;;4957643;28;20598;-70
2023/06/06 07:04:28;;;;;;;3.60;3.20;;;36.50;39.80;;;;;;4974861;28;20651;-70
2023/06/06 07:06:54;;;;;;;5.00;3.50;;;36.90;39.10;;;;;;4975058;28;20433;-70
2023/06/06 07:09:20;;;;;;;3.53;3.23;;;37.30;38.10;;;;;;4974893;28;20432;-70
2023/06/06 07:11:46;;;;;;;3.80;3.50;;;37.70;37.20;;;;;;4974592;28;20429;-70
2023/06/06 07:14:11;;;;;;;3.63;3.30;;;38.20;36.10;;;;;;4974680;28;20427;-70
2023/06/06 07:16:37;;;;;;;4.07;3.77;;;38.70;35.50;;;;;;4974596;28;20257;-70
2023/06/06 07:19:02;;;;;;;4.40;4.00;;;39.20;34.30;;;;;;4974798;28;20162;-71
2023/06/06 07:21:28;;;;;;;4.97;3.83;;;39.50;33.40;;;;;;4974334;28;20237;-71
2023/06/06 07:23:53;;;;;;;3.70;3.40;;;39.90;32.90;;;;;;4974681;28;20166;-71
2023/06/06 07:26:19;;;;;;;3.77;3.40;;;40.30;32.50;;;;;;4957133;28;20166;-70
2023/06/06 07:28:46;;;;;;;6.03;4.30;;;40.80;32.00;;;;;;4974543;28;20182;-70
2023/06/06 07:31:13;;;;;;;4.20;3.83;;;41.30;31.00;;;;;;4974148;28;20646;-70
2023/06/06 07:33:38;;;;;;;4.00;3.50;;;41.60;30.30;;;;;;4974484;28;20420;-71
2023/06/06 07:36:04;;;;;;;4.07;3.73;;;41.80;29.80;;;;;;4974392;28;20446;-71
2023/06/06 07:38:30;;;;;;;3.63;3.33;;;42.10;29.50;;;;;;4974200;28;20759;-71
2023/06/06 07:40:56;;;;;;;3.57;3.27;;;42.50;29.10;;;;;;4974053;28;20413;-71
2023/06/06 07:43:21;;;;;;;4.00;3.70;;;42.80;28.80;;;;;;4974196;28;20208;-70
2023/06/06 07:45:47;;;;;;;4.37;3.70;;;43.20;28.60;;;;;;4974322;28;20578;-71
2023/06/06 07:48:12;;;;;;;5.17;4.80;;;43.60;27.80;;;;;;4956301;28;20165;-69
2023/06/06 07:50:38;;;;;;;4.20;3.83;;;43.80;27.50;;;;;;4973859;28;20197;-68
2023/06/06 07:53:04;;;;;;;6.37;4.07;;;44.30;27.10;;;;;;4974095;28;20268;-68
2023/06/06 07:55:31;;;;;;;3.50;3.30;;;44.50;26.60;;;;;;4974133;28;20192;-68
2023/06/06 07:57:57;;;;;;;3.87;3.67;;;45.00;26.70;;;;;;4973922;28;20189;-68
2023/06/06 08:00:23;;;;;;;4.23;3.90;;;45.70;26.20;;;;;;4973877;28;20459;-69
2023/06/06 08:02:48;;;;;;;3.83;3.53;;;46.40;26.30;;;;;;4973810;28;20429;-69
2023/06/06 08:05:14;;;;;;;3.57;3.37;;;47.00;25.40;;;;;;4956485;28;20500;-68
2023/06/06 08:07:39;;;;;;;3.47;3.27;;;47.60;24.80;;;;;;4973723;28;20170;-68
2023/06/06 08:10:06;;;;;;;4.00;3.70;;;48.20;24.30;;;;;;4973264;28;20228;-68
2023/06/06 08:12:32;;;;;;;3.57;3.37;;;48.80;23.80;;;;;;4964468;28;20190;-69
2023/06/06 08:14:58;;;;;;;4.30;4.00;;;49.30;23.40;;;;;;4953869;29;20483;-69
2023/06/06 08:17:24;;;;;;;7.57;3.80;;;49.70;23.00;;;;;;4954224;29;20472;-69
2023/06/06 08:19:49;;;;;;;4.13;3.83;;;50.10;22.60;;;;;;4954338;29;20412;-69
2023/06/06 08:22:15;;;;;;;4.63;4.23;;;50.50;22.40;;;;;;4953629;28;20261;-69
2023/06/06 08:24:41;;;;;;;4.37;4.07;;;50.90;21.90;;;;;;4954237;29;20627;-69
2023/06/06 08:27:07;;;;;;;4.13;3.73;;;51.20;21.70;;;;;;4953945;29;20758;-68
2023/06/06 08:29:33;;;;;;;4.47;4.13;;;51.50;21.50;;;;;;4954266;29;20446;-69
2023/06/06 08:32:01;;;;;;;4.50;4.20;;;51.80;21.10;;;;;;4953869;28;20190;-69
2023/06/06 08:34:27;;;;;;;6.23;4.30;;;52.10;20.80;;;;;;4954273;29;20192;-70
2023/06/06 08:36:53;;;;;;;4.37;4.03;;;52.30;20.60;;;;;;4954166;29;20413;-69
2023/06/06 08:39:19;;;;;;;4.63;3.47;;;52.60;20.50;;;;;;4953700;29;20437;-69
2023/06/06 08:41:51;;;;;;;4.20;3.93;;;52.70;20.40;;;;;;4953611;28;20553;-69
2023/06/06 08:44:21;;;;;;;4.50;4.20;;;53.00;20.30;;;;;;4953934;29;20424;-69
2023/06/06 08:46:51;;;;;;;3.97;3.77;;;53.30;20.10;;;;;;4953849;29;20444;-69
2023/06/06 08:49:20;;;;;;;4.60;4.20;;;53.70;19.90;;;;;;4954333;29;20402;-69
2023/06/06 08:51:50;;;;;;;4.73;4.37;;;54.00;19.80;;;;;;4953708;28;20475;-69
2023/06/06 08:54:18;;;;;;;4.80;4.50;;;54.30;19.70;;;;;;4953831;29;20380;-69
2023/06/06 08:56:45;;;;;;;4.70;4.40;;;54.60;19.50;;;;;;4953913;29;20820;-69
2023/06/06 08:59:11;;;;;;;4.80;4.07;;;54.80;19.20;;;;;;4953992;29;20412;-68
2023/06/06 09:01:40;;;;;;;4.70;4.30;;;55.00;19.30;;;;;;4953589;28;20509;-68
2023/06/06 09:04:07;;;;;;;4.80;4.50;;;55.20;19.00;;;;;;4953915;29;20474;-68
2023/06/06 09:06:44;;;;;;;5.10;4.60;;;55.50;18.80;;;;;;4953695;29;20437;-68
2023/06/06 09:09:10;;;;;;;4.80;4.47;;;55.70;18.70;;;;;;4953915;29;20768;-68
2023/06/06 09:11:36;;;;;;;5.07;4.77;;;55.80;18.50;;;;;;4953476;28;20914;-68
2023/06/06 09:14:03;;;;;;;5.03;4.60;;;55.80;18.40;;;;;;4936486;29;20445;-68
2023/06/06 09:16:30;;;;;;;5.40;5.00;;;55.90;18.40;;;;;;4936489;29;20425;-68
2023/06/06 09:19:00;;;;;;;5.70;5.30;;;56.00;18.20;;;;;;4956215;28;20930;-68
2023/06/06 09:21:32;;;;;;;5.37;4.87;;;56.20;18.50;;;;;;4957505;28;20938;-68
2023/06/06 09:23:57;;;;;;;5.70;5.30;;;56.40;18.20;;;;;;4957635;29;20409;-68
2023/06/06 09:26:23;;;;;;;6.20;5.80;;;56.50;18.00;;;;;;4957562;29;20452;-68
2023/06/06 09:28:49;;;;;;;6.53;6.10;;;56.60;17.80;;;;;;4957577;29;20697;-68
2023/06/06 09:31:37;;;;;;;4.20;3.90;;;56.70;17.60;;;;;;4957119;28;20405;-68
2023/06/06 09:34:03;;;;;;;4.60;4.40;;;56.70;17.60;;;;;;4957536;29;20169;-68
2023/06/06 09:36:29;;;;;;;5.13;4.73;;;56.70;17.50;;;;;;4957512;29;20421;-68
2023/06/06 09:39:05;;;;;;;4.70;4.30;;;56.50;17.10;;;;;;4957322;29;20401;-68
2023/06/06 09:41:37;;;;;;;6.00;4.90;;;56.70;17.70;;;;;;4956971;28;20571;-68
2023/06/06 09:44:04;;;;;;;4.47;4.27;;;56.70;17.40;;;;;;4957222;29;20420;-68
2023/06/06 09:46:36;;;;;;;4.63;4.33;;;56.80;17.50;;;;;;4957151;29;20416;-68
2023/06/06 09:49:01;;;;;;;4.83;4.57;;;56.90;17.60;;;;;;4957352;29;20408;-68
2023/06/06 09:51:33;;;;;;;4.33;4.13;;;57.10;17.40;;;;;;4957026;28;20464;-68
2023/06/06 09:54:00;;;;;;;4.93;4.63;;;57.10;17.20;;;;;;4957122;29;20562;-68
2023/06/06 09:56:29;;;;;;;5.17;4.80;;;57.10;17.20;;;;;;4957025;29;20485;-68
2023/06/06 09:58:55;;;;;;;5.27;4.87;;;57.20;17.10;;;;;;4956913;29;20834;-68
2023/06/06 10:01:27;;;;;;;7.00;5.83;;;56.90;16.80;;;;;;4956642;28;20505;-68
2023/06/06 10:03:56;;;;;;;5.23;4.93;;;56.80;17.10;;;;;;4956919;29;20420;-68
2023/06/06 10:06:22;;;;;;;5.63;5.13;;;56.70;17.20;;;;;;4956818;29;20790;-69
2023/06/06 10:08:50;;;;;;;4.77;4.37;;;56.70;17.10;;;;;;4939468;29;20492;-69
2023/06/06 10:11:16;;;;;;;5.70;5.20;;;56.70;16.90;;;;;;4956364;28;20408;-68
2023/06/06 10:13:42;;;;;;;5.27;4.77;;;56.70;17.10;;;;;;4939388;29;20508;-69
2023/06/06 10:16:09;;;;;;;5.27;4.97;;;56.70;17.20;;;;;;4939577;29;20216;-68
2023/06/06 10:18:36;;;;;;;5.07;4.67;;;56.70;17.00;;;;;;4956649;29;20420;-68
2023/06/06 10:21:03;;;;;;;4.87;4.50;;;56.60;16.80;;;;;;4956299;28;20472;-69
2023/06/06 10:23:29;;;;;;;4.67;4.23;;;56.50;17.00;;;;;;4956552;29;20421;-69
2023/06/06 10:25:57;;;;;;;4.87;4.40;;;56.60;17.10;;;;;;4956391;29;20405;-69
2023/06/06 10:28:29;;;;;;;5.10;4.70;;;56.80;17.10;;;;;;4956107;28;20205;-69
2023/06/06 10:31:11;;;;;;;6.13;5.73;;;57.00;17.00;;;;;;4956125;29;20766;-68
2023/06/06 10:34:13;;;;;;;4.80;4.50;;;57.10;16.70;;;;;;4956389;29;20405;-68
2023/06/06 10:36:43;;;;;;;10.40;5.73;;;57.20;16.80;;;;;;4915816;29;20417;-69
2023/06/06 10:39:17;;;;;;;5.33;5.03;;;57.30;16.70;;;;;;4956328;29;20402;-68
2023/06/06 10:41:52;;;;;;;5.30;5.00;;;57.20;16.70;;;;;;4955874;28;20421;-68
2023/06/06 10:44:24;;;;;;;9.13;6.60;;;57.20;16.80;;;;;;4956238;29;20495;-69
2023/06/06 10:46:50;;;;;;;6.20;5.70;;;57.30;16.50;;;;;;4956038;29;20790;-69
2023/06/06 10:49:15;;;;;;;6.40;5.90;;;57.30;16.30;;;;;;4956061;29;20394;-69
2023/06/06 10:51:41;;;;;;;4.83;4.43;;;57.50;16.00;;;;;;4955761;28;20270;-69
2023/06/06 10:54:27;;;;;;;7.77;6.27;;;57.50;15.90;;;;;;4956022;29;20166;-69
2023/06/06 10:56:54;;;;;;;5.70;5.30;;;57.50;16.00;;;;;;4955982;29;20177;-69
2023/06/06 10:59:28;;;;;;;5.27;4.77;;;57.50;15.70;;;;;;4955855;29;20413;-69
2023/06/06 11:01:55;;;;;;;4.40;4.10;;;57.50;16.10;;;;;;4955484;28;20436;-69
2023/06/06 11:04:25;;;;;;;5.13;4.83;;;57.50;16.00;;;;;;4955815;29;20926;-69
2023/06/06 11:06:52;;;;;;;5.00;4.50;;;57.50;16.20;;;;;;4955658;29;20413;-69
2023/06/06 11:09:24;;;;;;;7.27;4.70;;;57.60;16.30;;;;;;4955698;29;20405;-69
2023/06/06 11:12:10;;;;;;;5.07;4.77;;;57.70;16.90;;;;;;4955354;28;20910;-69
2023/06/06 11:14:55;;;;;;;4.87;4.57;;;57.60;16.10;;;;;;4955447;29;20524;-69
2023/06/06 11:17:29;;;;;;;6.60;5.03;;;57.70;16.10;;;;;;4955596;29;20438;-69
2023/06/06 11:19:56;;;;;;;5.30;4.90;;;57.80;16.00;;;;;;4955455;29;20441;-69
2023/06/06 11:22:24;;;;;;;7.67;4.90;;;57.80;15.80;;;;;;4955170;28;20515;-69
2023/06/06 11:24:50;;;;;;;4.80;4.50;;;57.80;15.80;;;;;;4955466;29;20413;-69
2023/06/06 11:27:16;;;;;;;4.70;4.40;;;57.70;15.90;;;;;;4955309;29;21032;-69
2023/06/06 11:29:42;;;;;;;5.40;4.87;;;57.70;15.90;;;;;;4938129;29;20173;-69
2023/06/06 11:32:12;;;;;;;5.57;5.03;;;57.70;16.00;;;;;;4955009;28;20430;-69
2023/06/06 11:34:38;;;;;;;5.30;4.90;;;57.70;16.00;;;;;;4955172;29;20412;-69
2023/06/06 11:37:06;;;;;;;5.40;4.93;;;57.60;16.00;;;;;;4955202;29;20410;-69
2023/06/06 11:39:32;;;;;;;5.30;5.00;;;57.50;15.90;;;;;;4955186;29;20485;-69
2023/06/06 11:41:58;;;;;;;5.10;4.70;;;57.50;15.80;;;;;;4954137;28;20465;-68
2023/06/06 11:44:32;;;;;;;5.43;4.50;;;57.50;16.10;;;;;;4955078;29;20655;-69
2023/06/06 11:46:57;;;;;;;5.23;4.80;;;57.60;16.20;;;;;;4937684;29;20460;-69
2023/06/06 11:49:23;;;;;;;4.70;4.50;;;57.70;16.20;;;;;;4954971;29;20549;-69
2023/06/06 11:51:56;;;;;;;4.43;4.23;;;57.80;16.00;;;;;;4954805;28;20181;-69
2023/06/06 11:54:21;;;;;;;4.60;4.30;;;57.80;15.50;;;;;;4954891;29;20577;-69
2023/06/06 11:56:49;;;;;;;3.97;3.73;;;57.70;15.70;;;;;;4954823;29;20492;-69
2023/06/06 11:59:15;;;;;;;4.70;4.30;;;57.60;15.70;;;;;;4954965;29;20228;-69
2023/06/06 12:01:52;;;;;;;4.87;4.57;;;57.60;15.60;;;;;;4954395;28;20508;-69
2023/06/06 12:04:18;;;;;;;4.83;4.40;;;57.50;15.70;;;;;;4937501;29;20191;-68
2023/06/06 12:06:49;;;;;;;3.97;3.70;;;57.30;16.10;;;;;;4954651;29;20511;-69
2023/06/06 12:09:16;;;;;;;4.13;3.83;;;57.20;15.70;;;;;;4954686;29;20568;-69
2023/06/06 12:11:56;;;;;;;4.73;4.43;;;57.10;15.50;;;;;;4954239;28;20429;-69
2023/06/06 12:14:23;;;;;;;4.80;4.50;;;57.00;15.50;;;;;;4954307;29;20425;-69
2023/06/06 12:16:49;;;;;;;3.93;3.63;;;56.90;15.40;;;;;;4954585;29;20412;-69
2023/06/06 12:19:15;;;;;;;4.47;4.23;;;56.70;15.30;;;;;;4954350;29;20409;-69
2023/06/06 12:21:51;;;;;;;4.40;4.20;;;56.60;15.00;;;;;;4954350;28;20524;-69
2023/06/06 12:24:18;;;;;;;4.07;3.87;;;56.40;15.30;;;;;;4954429;29;20500;-69
2023/06/06 12:26:56;;;;;;;4.83;4.43;;;56.50;15.50;;;;;;4954177;29;20435;-69
2023/06/06 12:29:26;;;;;;;7.17;6.00;;;56.60;15.50;;;;;;4954250;29;20413;-69
2023/06/06 12:32:12;;;;;;;4.80;4.50;;;56.60;15.20;;;;;;4953855;28;20449;-69
2023/06/06 12:34:44;;;;;;;3.83;3.63;;;56.40;15.20;;;;;;4954256;29;20433;-69
2023/06/06 12:37:10;;;;;;;4.47;4.17;;;55.20;15.10;;;;;;4954122;29;20501;-68
2023/06/06 12:39:43;;;;;;;3.80;3.60;;;53.10;15.20;;;;;;4954192;29;20484;-67
2023/06/06 12:42:16;;;;;;;3.97;3.60;;;50.80;15.80;;;;;;4954049;28;20241;-67
2023/06/06 12:44:43;;;;;;;3.43;3.13;;;48.70;16.50;;;;;;4954134;29;20421;-67
2023/06/06 12:47:11;;;;;;;4.20;3.90;;;46.70;17.10;;;;;;4954033;29;20428;-68